Time;durP1;ratioP1;P1;durP2;ratioP2;P2;SDS_P1;SDS_P2;PMS_P1;PMS_P2;Temp;Humidity;BMP_temperature;BMP_pressure;BME280_temperature;BME280_humidity;BME280_pressure;Samples;Min_cycle;Max_cycle;Signal;HPM_P1;HPM_P2
2024/02/02 00:02:02;;;;;;;23.45;6.85;;;;;;;6.62;100.00;103092.56;5245243;28;20041;-75
2024/02/02 00:04:33;;;;;;;;;;;;;;;7.19;100.00;103091.53;5242766;28;20033;-75
2024/02/02 00:07:05;;;;;;;18.35;6.85;;;;;;;6.69;100.00;103086.25;5247776;28;20279;-75
2024/02/02 00:09:37;;;;;;;20.33;8.00;;;;;;;6.61;100.00;103080.44;5244660;28;20037;-76
2024/02/02 00:12:11;;;;;;;17.85;7.50;;;;;;;6.66;100.00;103080.28;5243075;28;20033;-74
2024/02/02 00:14:43;;;;;;;23.52;7.88;;;;;;;6.62;100.00;103070.88;5238493;28;20037;-74
2024/02/02 00:17:15;;;;;;;22.55;7.00;;;;;;;6.63;100.00;103076.06;5243311;28;20505;-76
2024/02/02 00:19:46;;;;;;;20.33;6.90;;;;;;;6.64;100.00;103072.53;5239381;28;20076;-75
2024/02/02 00:22:20;;;;;;;23.63;8.38;;;;;;;6.64;100.00;103067.34;5240001;28;20029;-75
2024/02/02 00:24:52;;;;;;;21.08;7.20;;;;;;;6.64;100.00;103062.13;5240956;28;20612;-75
2024/02/02 00:27:24;;;;;;;21.27;7.43;;;;;;;6.64;100.00;103059.50;5240578;28;20032;-75
2024/02/02 00:29:56;;;;;;;20.40;8.07;;;;;;;6.71;100.00;103054.97;5241638;28;20025;-73
2024/02/02 00:32:28;;;;;;;22.63;8.15;;;;;;;6.60;100.00;103033.63;5239267;28;20029;-76
2024/02/02 00:35:00;;;;;;;24.60;8.25;;;;;;;6.62;100.00;103040.47;5240197;28;20033;-75
2024/02/02 00:37:32;;;;;;;19.10;8.38;;;;;;;6.59;100.00;103024.94;5246672;28;20032;-75
2024/02/02 00:40:08;;;;;;;21.10;7.45;;;;;;;6.69;100.00;103048.94;5242656;28;20049;-75
2024/02/02 00:42:42;;;;;;;20.23;7.47;;;;;;;6.75;100.00;103044.38;5241076;28;20025;-75
2024/02/02 00:45:14;;;;;;;25.63;9.13;;;;;;;6.74;100.00;103034.00;5241508;28;20387;-75
2024/02/02 00:47:46;;;;;;;17.30;7.85;;;;;;;6.74;100.00;103023.56;5242184;28;20040;-76
2024/02/02 00:50:18;;;;;;;21.33;8.15;;;;;;;6.63;100.00;102981.41;5241458;28;20033;-75
2024/02/02 00:52:50;;;;;;;19.77;7.45;;;;;;;6.74;100.00;103005.34;5239995;28;20494;-75
2024/02/02 00:55:22;;;;;;;17.48;7.47;;;;;;;6.73;100.00;103006.25;5243053;28;20032;-75
2024/02/02 00:57:54;;;;;;;21.83;8.25;;;;;;;6.74;100.00;103005.34;5241340;28;20100;-75
2024/02/02 01:00:26;;;;;;;22.98;7.85;;;;;;;6.75;100.00;103022.69;5239741;28;20068;-75
2024/02/02 01:02:57;;;;;;;19.05;8.48;;;;;;;6.74;100.00;103024.47;5247461;28;20038;-75
2024/02/02 01:05:31;;;;;;;19.25;7.90;;;;;;;6.68;100.00;103005.56;5242642;28;20045;-75
2024/02/02 01:08:04;;;;;;;26.23;8.85;;;;;;;6.79;100.00;103029.50;5238680;28;20036;-74
2024/02/02 01:10:36;;;;;;;19.85;8.05;;;;;;;6.80;100.00;103036.41;5240862;28;20036;-74
2024/02/02 01:13:08;;;;;;;26.20;7.38;;;;;;;6.72;100.00;103023.63;5242002;28;20036;-75
2024/02/02 01:15:40;;;;;;;21.90;7.38;;;;;;;6.86;100.00;103036.22;5239857;28;20025;-75
2024/02/02 01:18:14;;;;;;;21.83;7.35;;;;;;;6.88;100.00;103033.53;5240149;28;20040;-75
2024/02/02 01:20:46;;;;;;;19.88;7.07;;;;;;;6.89;100.00;103040.44;5243103;28;20032;-75
2024/02/02 01:23:18;;;;;;;21.48;6.90;;;;;;;6.90;100.00;103032.59;5242815;28;20039;-75
2024/02/02 01:25:50;;;;;;;24.17;6.95;;;;;;;6.90;100.00;103023.94;5240959;28;20399;-75
2024/02/02 01:28:22;;;;;;;18.67;7.20;;;;;;;6.82;100.00;103008.56;5238921;28;20041;-74
2024/02/02 01:30:54;;;;;;;18.98;7.03;;;;;;;6.90;100.00;103019.56;5240760;28;20499;-75
2024/02/02 01:33:26;;;;;;;23.85;7.60;;;;;;;6.88;100.00;103021.38;5244662;28;20033;-75
2024/02/02 01:35:58;;;;;;;16.92;6.55;;;;;;;6.90;100.00;103022.16;5239966;28;20033;-74
2024/02/02 01:38:29;;;;;;;21.77;6.80;;;;;;;6.92;100.00;103011.69;5237883;28;20506;-75
2024/02/02 01:41:02;;;;;;;16.98;6.28;;;;;;;6.95;100.00;103011.59;5240526;28;20032;-75
2024/02/02 01:43:33;;;;;;;16.83;6.60;;;;;;;6.93;100.00;103003.84;5240592;28;20458;-75
2024/02/02 01:46:06;;;;;;;21.23;6.95;;;;;;;6.97;100.00;103004.53;5240417;28;20040;-75
2024/02/02 01:48:38;;;;;;;15.65;6.10;;;;;;;6.87;100.00;102982.34;5242959;28;20399;-75
2024/02/02 01:51:11;;;;;;;19.80;6.70;;;;;;;6.95;100.00;102988.97;5241302;28;20040;-75
2024/02/02 01:53:43;;;;;;;22.40;6.85;;;;;;;6.92;100.00;102983.88;5240053;28;20486;-76
2024/02/02 01:56:15;;;;;;;21.30;6.72;;;;;;;6.96;100.00;102984.63;5237837;28;20116;-76
2024/02/02 01:58:47;;;;;;;18.50;5.88;;;;;;;6.93;100.00;102980.38;5239086;28;20033;-75
2024/02/02 02:01:19;;;;;;;17.85;5.97;;;;;;;6.87;100.00;102980.59;5242172;28;20039;-74
2024/02/02 02:03:51;;;;;;;19.15;6.38;;;;;;;6.90;100.00;102988.31;5239830;28;20033;-76
2024/02/02 02:06:23;;;;;;;20.85;6.45;;;;;;;6.89;100.00;102988.34;5239789;28;20045;-74
2024/02/02 02:08:55;;;;;;;19.27;5.63;;;;;;;6.90;100.00;102985.69;5239567;28;20430;-75
2024/02/02 02:11:27;;;;;;;20.05;6.85;;;;;;;6.89;100.00;102976.16;5241288;28;20036;-75
2024/02/02 02:13:59;;;;;;;18.35;5.60;;;;;;;6.71;100.00;102937.75;5238617;28;20041;-74
2024/02/02 02:16:31;;;;;;;25.25;6.88;;;;;;;6.88;100.00;102964.03;5242736;28;20046;-76
2024/02/02 02:19:04;;;;;;;19.85;6.03;;;;;;;6.89;100.00;102952.69;5241455;28;20483;-74
2024/02/02 02:21:36;;;;;;;17.48;5.55;;;;;;;6.90;100.00;102954.44;5240385;28;20462;-76
2024/02/02 02:24:08;;;;;;;18.48;6.78;;;;;;;6.88;100.00;102950.16;5239668;28;20032;-75
2024/02/02 02:26:41;;;;;;;19.83;6.25;;;;;;;6.89;100.00;102950.09;5239508;28;20044;-73
2024/02/02 02:29:13;;;;;;;16.42;5.13;;;;;;;6.92;100.00;102947.38;5233029;28;20053;-75
2024/02/02 02:31:54;;;;;;;21.98;6.03;;;;;;;7.04;100.00;102935.66;5243609;28;20528;-76
2024/02/02 02:34:27;;;;;;;16.50;5.53;;;;;;;6.88;100.00;102942.34;5239938;28;20037;-74
2024/02/02 02:36:59;;;;;;;20.13;5.73;;;;;;;6.84;100.00;102931.19;5241056;28;20041;-75
2024/02/02 02:39:31;;;;;;;17.35;6.38;;;;;;;6.89;100.00;102944.03;5237518;28;20048;-74
2024/02/02 02:42:03;;;;;;;18.38;5.72;;;;;;;6.91;100.00;102950.91;5238770;28;20394;-74
2024/02/02 02:44:34;;;;;;;19.67;6.07;;;;;;;6.89;100.00;102944.03;5239304;28;20079;-74
2024/02/02 02:47:07;;;;;;;20.15;5.70;;;;;;;6.87;100.00;102925.03;5239570;28;20108;-74
2024/02/02 02:49:39;;;;;;;20.65;5.85;;;;;;;6.82;100.00;102914.78;5243751;28;20041;-74
2024/02/02 02:52:11;;;;;;;19.15;6.32;;;;;;;6.81;100.00;102913.06;5234608;28;20040;-77
2024/02/02 02:54:43;;;;;;;14.30;5.40;;;;;;;6.88;100.00;102931.94;5234842;28;20434;-74
2024/02/02 02:57:15;;;;;;;22.95;6.47;;;;;;;6.85;100.00;102925.06;5244304;28;20028;-74
2024/02/02 02:59:47;;;;;;;21.00;6.47;;;;;;;6.88;100.00;102922.34;5236334;28;20053;-74
2024/02/02 03:02:18;;;;;;;19.75;5.78;;;;;;;6.87;100.00;102931.06;5233967;28;20045;-76
2024/02/02 03:04:50;;;;;;;20.90;7.63;;;;;;;6.85;100.00;102932.88;5239894;28;20399;-75
2024/02/02 03:07:22;;;;;;;17.15;5.90;;;;;;;6.88;100.00;102922.34;5236320;28;20245;-74
2024/02/02 03:09:54;;;;;;;20.08;6.03;;;;;;;6.88;100.00;102930.16;5238281;28;20390;-75
2024/02/02 03:12:26;;;;;;;18.73;5.47;;;;;;;6.86;100.00;102923.28;5238885;28;20041;-74
2024/02/02 03:14:58;;;;;;;14.68;5.10;;;;;;;6.88;100.00;102924.09;5240068;28;20033;-74
2024/02/02 03:17:30;;;;;;;17.98;5.80;;;;;;;6.85;100.00;102919.00;5247841;28;20493;-74
2024/02/02 03:20:02;;;;;;;13.82;5.38;;;;;;;6.85;100.00;102922.44;5245091;28;20044;-74
2024/02/02 03:22:34;;;;;;;19.35;5.22;;;;;;;6.82;100.00;102910.41;5239948;28;20041;-74
2024/02/02 03:25:07;;;;;;;16.10;5.35;;;;;;;6.83;100.00;102904.28;5242014;28;20029;-75
2024/02/02 03:27:39;;;;;;;17.45;5.65;;;;;;;6.72;100.00;102885.59;5241047;28;20046;-76
2024/02/02 03:30:11;;;;;;;17.60;5.50;;;;;;;6.79;100.00;102889.66;5239825;28;20033;-74
2024/02/02 03:32:44;;;;;;;15.15;4.55;;;;;;;6.77;100.00;102882.81;5241598;28;20057;-76
2024/02/02 03:35:16;;;;;;;22.23;6.20;;;;;;;6.78;100.00;102881.88;5241767;28;20040;-75
2024/02/02 03:37:48;;;;;;;15.63;6.00;;;;;;;6.75;100.00;102877.66;5253066;28;20048;-74
2024/02/02 03:40:20;;;;;;;11.82;4.80;;;;;;;6.74;100.00;102875.09;5243975;28;20478;-75
2024/02/02 03:42:51;;;;;;;13.70;5.15;;;;;;;6.72;100.00;102872.56;5243672;28;20063;-74
2024/02/02 03:45:23;;;;;;;14.65;5.30;;;;;;;6.61;100.00;102879.06;5242935;28;20037;-76
2024/02/02 03:47:55;;;;;;;18.95;6.50;;;;;;;6.66;100.00;102877.13;5240276;28;20471;-74
2024/02/02 03:50:27;;;;;;;15.88;5.18;;;;;;;6.58;100.00;102857.41;5241590;28;20506;-74
2024/02/02 03:53:00;;;;;;;16.20;5.43;;;;;;;6.59;100.00;102863.47;5240383;28;20032;-74
2024/02/02 03:55:32;;;;;;;14.60;4.95;;;;;;;6.54;100.00;102858.44;5246497;28;20513;-75
2024/02/02 03:58:04;;;;;;;23.88;6.57;;;;;;;6.57;100.00;102866.13;5243210;28;20078;-75
2024/02/02 04:00:36;;;;;;;17.00;5.38;;;;;;;6.57;100.00;102875.72;5246115;28;20585;-76
2024/02/02 04:03:08;;;;;;;18.13;4.88;;;;;;;6.55;100.00;102865.34;5241992;28;20037;-74
2024/02/02 04:05:40;;;;;;;14.82;4.78;;;;;;;6.55;100.00;102880.09;5245069;28;20049;-75
2024/02/02 04:08:12;;;;;;;17.88;5.07;;;;;;;6.54;100.00;102881.03;5243115;28;20029;-74
2024/02/02 04:10:44;;;;;;;18.42;5.53;;;;;;;6.54;100.00;102879.25;5243409;28;20029;-75
2024/02/02 04:13:15;;;;;;;11.23;4.28;;;;;;;6.52;100.00;102869.81;5243452;28;20028;-77
2024/02/02 04:15:47;;;;;;;15.50;4.93;;;;;;;6.52;100.00;102862.00;5235283;28;20167;-74
2024/02/02 04:18:19;;;;;;;17.90;5.30;;;;;;;6.47;100.00;102856.94;5240651;28;20032;-74
2024/02/02 04:20:53;;;;;;;15.15;5.18;;;;;;;6.46;100.00;102855.25;5237734;28;20039;-77
2024/02/02 04:23:25;;;;;;;;;;;;;;;7.01;100.00;102861.06;5235960;28;20029;-76
2024/02/02 04:25:56;;;;;;;17.15;5.05;;;;;;;6.56;100.00;102856.63;5238994;28;20012;-76
2024/02/02 04:28:28;;;;;;;15.93;4.70;;;;;;;6.53;100.00;102866.31;5236594;28;20029;-74
2024/02/02 04:31:01;;;;;;;16.52;5.13;;;;;;;6.53;100.00;102866.31;5241068;28;20514;-74
2024/02/02 04:33:32;;;;;;;12.35;3.90;;;;;;;6.58;100.00;102873.03;5241682;28;20386;-74
2024/02/02 04:36:05;;;;;;;18.05;4.53;;;;;;;6.45;100.00;102865.72;5241946;28;20033;-75
2024/02/02 04:38:36;;;;;;;15.48;4.57;;;;;;;6.46;100.00;102864.81;5237392;28;21418;-75
2024/02/02 04:41:08;;;;;;;14.43;5.00;;;;;;;6.47;100.00;102869.13;5238068;28;20958;-74
2024/02/02 04:43:40;;;;;;;15.88;4.68;;;;;;;6.48;100.00;102874.28;5239120;28;20042;-75
2024/02/02 04:46:12;;;;;;;15.75;4.43;;;;;;;6.40;100.00;102863.25;5240398;28;20505;-74
2024/02/02 04:48:44;;;;;;;14.85;4.18;;;;;;;6.50;100.00;102867.25;5241372;28;20065;-75
2024/02/02 04:51:17;;;;;;;19.33;5.38;;;;;;;6.49;100.00;102865.56;5237966;28;20029;-75
2024/02/02 04:53:49;;;;;;;15.70;4.65;;;;;;;6.44;100.00;102859.69;5238365;28;20025;-74
2024/02/02 04:56:21;;;;;;;13.13;4.30;;;;;;;6.50;100.00;102875.06;5238404;28;20059;-75
2024/02/02 04:58:53;;;;;;;13.32;4.90;;;;;;;6.50;100.00;102874.22;5239113;28;21132;-75
2024/02/02 05:01:25;;;;;;;15.57;4.65;;;;;;;6.50;100.00;102859.44;5242282;28;20394;-75
2024/02/02 05:03:57;;;;;;;17.20;5.18;;;;;;;6.54;100.00;102860.19;5239128;28;20096;-74
2024/02/02 05:06:29;;;;;;;16.17;4.20;;;;;;;6.57;100.00;102849.66;5240119;28;20482;-74
2024/02/02 05:09:01;;;;;;;17.80;4.35;;;;;;;6.52;100.00;102833.38;5238679;28;20041;-75
2024/02/02 05:11:33;;;;;;;16.42;4.90;;;;;;;6.61;100.00;102847.81;5239906;28;20048;-74
2024/02/02 05:14:05;;;;;;;16.90;4.32;;;;;;;6.55;100.00;102849.72;5238712;28;20119;-74
2024/02/02 05:16:37;;;;;;;13.05;4.50;;;;;;;6.57;100.00;102847.91;5241363;28;20414;-74
2024/02/02 05:19:09;;;;;;;16.08;4.85;;;;;;;6.60;100.00;102835.69;5243057;28;20032;-74
2024/02/02 05:21:40;;;;;;;20.92;5.65;;;;;;;6.54;100.00;102824.56;5238522;28;20045;-76
2024/02/02 05:24:12;;;;;;;17.73;5.15;;;;;;;6.60;100.00;102833.09;5239926;28;20029;-74
2024/02/02 05:26:44;;;;;;;16.20;4.80;;;;;;;6.48;100.00;102822.22;5236492;28;20037;-75
2024/02/02 05:29:16;;;;;;;14.07;4.25;;;;;;;6.56;100.00;102828.00;5236636;28;20037;-74
2024/02/02 05:31:48;;;;;;;18.58;5.50;;;;;;;6.47;100.00;102817.03;5240111;28;20044;-75
2024/02/02 05:34:20;;;;;;;17.27;5.00;;;;;;;6.55;100.00;102823.69;5233987;28;20033;-74
2024/02/02 05:36:52;;;;;;;14.32;4.18;;;;;;;6.52;100.00;102818.59;5236367;28;20029;-76
2024/02/02 05:39:24;;;;;;;15.77;4.32;;;;;;;6.49;100.00;102812.63;5242188;28;20036;-74
2024/02/02 05:41:57;;;;;;;21.20;4.55;;;;;;;6.46;100.00;102804.94;5238068;28;20459;-75
2024/02/02 05:44:29;;;;;;;;;;;;;;;6.94;100.00;102804.88;5236442;28;20025;-76
2024/02/02 05:47:01;;;;;;;11.40;3.92;;;;;;;6.51;100.00;102813.41;5234431;28;19913;-74
2024/02/02 05:49:33;;;;;;;17.98;4.15;;;;;;;6.36;100.00;102791.38;5237752;28;20044;-74
2024/02/02 05:52:05;;;;;;;14.75;4.10;;;;;;;6.34;100.00;102799.25;5238210;28;20474;-76
2024/02/02 05:54:37;;;;;;;15.85;4.55;;;;;;;6.29;100.00;102790.78;5236891;28;20483;-76
2024/02/02 05:57:09;;;;;;;17.52;4.45;;;;;;;6.24;100.00;102786.63;5237845;28;20817;-76
2024/02/02 05:59:40;;;;;;;15.55;3.80;;;;;;;6.24;100.00;102791.84;5238455;28;20033;-76
2024/02/02 06:02:12;;;;;;;16.67;4.78;;;;;;;6.24;100.00;102797.88;5234993;28;20029;-74
2024/02/02 06:04:44;;;;;;;14.85;4.40;;;;;;;6.23;100.00;102797.94;5235190;28;20057;-76
2024/02/02 06:07:16;;;;;;;17.00;4.75;;;;;;;6.23;100.00;102797.94;5233423;28;20559;-74
2024/02/02 06:09:48;;;;;;;15.02;4.38;;;;;;;6.13;100.00;102775.75;5236927;28;20025;-74
2024/02/02 06:12:20;;;;;;;16.60;4.57;;;;;;;6.08;100.00;102774.16;5239127;28;20032;-75
2024/02/02 06:14:52;;;;;;;22.50;5.03;;;;;;;6.17;100.00;102779.94;5237786;28;20028;-75
2024/02/02 06:17:24;;;;;;;15.10;4.03;;;;;;;6.21;100.00;102778.91;5241337;28;20044;-74
2024/02/02 06:19:56;;;;;;;15.73;4.50;;;;;;;6.20;100.00;102780.69;5235342;28;20478;-74
2024/02/02 06:22:28;;;;;;;12.48;4.25;;;;;;;6.20;100.00;102787.63;5238404;28;20029;-75
2024/02/02 06:25:00;;;;;;;14.43;4.03;;;;;;;6.15;100.00;102773.94;5236017;28;20157;-74
2024/02/02 06:27:32;;;;;;;18.33;4.65;;;;;;;6.10;100.00;102776.72;5238068;28;20033;-75
2024/02/02 06:30:07;;;;;;;15.73;5.18;;;;;;;6.16;100.00;102783.44;5242121;28;20436;-74
2024/02/02 06:32:40;;;;;;;16.23;4.85;;;;;;;6.21;100.00;102791.94;5234995;28;20041;-74
2024/02/02 06:35:12;;;;;;;19.48;5.15;;;;;;;6.13;100.00;102781.78;5234734;28;20040;-75
2024/02/02 06:37:44;;;;;;;16.50;4.38;;;;;;;6.17;100.00;102787.75;5237123;28;20041;-76
2024/02/02 06:40:16;;;;;;;16.73;5.28;;;;;;;6.09;100.00;102795.81;5236024;28;20486;-74
2024/02/02 06:42:48;;;;;;;19.33;4.40;;;;;;;6.13;100.00;102801.75;5235697;28;20037;-74
2024/02/02 06:45:22;;;;;;;22.02;4.95;;;;;;;6.15;100.00;102800.81;5236260;28;20029;-74
2024/02/02 06:47:54;;;;;;;14.23;4.45;;;;;;;6.17;100.00;102800.75;5233489;28;20025;-75
2024/02/02 06:50:26;;;;;;;15.68;4.63;;;;;;;6.12;100.00;102795.72;5235087;28;20043;-76
2024/02/02 06:52:58;;;;;;;18.35;4.50;;;;;;;6.15;100.00;102790.41;5236363;28;20037;-74
2024/02/02 06:55:30;;;;;;;16.73;4.78;;;;;;;6.29;100.00;102802.94;5234183;28;20553;-74
2024/02/02 06:58:04;;;;;;;14.90;4.35;;;;;;;6.33;100.00;102801.94;5232942;28;20502;-75
2024/02/02 07:00:36;;;;;;;13.70;4.72;;;;;;;6.30;100.00;102807.25;5235746;28;20041;-74
2024/02/02 07:03:08;;;;;;;15.52;4.70;;;;;;;6.31;100.00;102812.38;5233425;28;20038;-75
2024/02/02 07:05:43;;;;;;;18.38;5.22;;;;;;;6.46;100.00;102817.97;5224209;28;20111;-77
2024/02/02 07:08:15;;;;;;;21.77;4.53;;;;;;;6.44;100.00;102818.03;5237931;28;20037;-76
2024/02/02 07:10:57;;;;;;;15.77;3.97;;;;;;;6.43;100.00;102816.28;5235189;28;20378;-74
2024/02/02 07:13:39;;;;;;;13.85;4.63;;;;;;;6.43;100.00;102816.28;5238197;28;20034;-74
2024/02/02 07:16:32;;;;;;;13.23;3.85;;;;;;;6.65;100.00;102826.78;5224737;28;20590;-74
2024/02/02 07:19:04;;;;;;;17.00;5.63;;;;;;;6.42;100.00;102821.56;5230507;28;20052;-74
2024/02/02 07:21:37;;;;;;;15.48;4.28;;;;;;;6.42;100.00;102832.84;5233135;28;20053;-74
2024/02/02 07:24:10;;;;;;;13.70;4.78;;;;;;;6.51;100.00;102826.44;5237341;28;20022;-74
2024/02/02 07:26:42;;;;;;;14.48;4.50;;;;;;;6.55;100.00;102828.91;5238103;28;20037;-76
2024/02/02 07:29:37;;;;;;;15.35;4.50;;;;;;;6.79;100.00;102829.75;5235920;28;20025;-74
2024/02/02 07:32:16;;;;;;;13.48;4.45;;;;;;;6.72;100.00;102840.44;5230845;28;20471;-75
2024/02/02 07:34:50;;;;;;;20.00;5.18;;;;;;;6.51;100.00;102814.25;5234179;28;20067;-74
2024/02/02 07:37:47;;;;;;;17.17;4.88;;;;;;;6.91;100.00;102848.44;5235565;28;20029;-74
2024/02/02 07:40:53;;;;;;;14.30;4.80;;;;;;;6.87;100.00;102847.69;5239136;28;20390;-75
2024/02/02 07:43:25;;;;;;;16.67;5.18;;;;;;;6.70;100.00;102835.28;5245847;28;21208;-75
2024/02/02 07:45:57;;;;;;;21.02;5.40;;;;;;;6.74;100.00;102828.19;5241451;28;20378;-74
2024/02/02 07:48:29;;;;;;;14.90;4.95;;;;;;;6.75;100.00;102830.78;5239073;28;20044;-75
2024/02/02 07:51:01;;;;;;;15.80;4.82;;;;;;;6.77;100.00;102828.94;5234543;28;20038;-75
2024/02/02 07:53:34;;;;;;;20.77;5.78;;;;;;;6.72;100.00;102824.81;5235739;28;20390;-77
2024/02/02 07:56:06;;;;;;;17.53;5.83;;;;;;;6.80;100.00;102823.63;5237463;28;20037;-74
2024/02/02 07:58:39;;;;;;;14.50;5.47;;;;;;;6.78;100.00;102816.75;5236884;28;20033;-74
2024/02/02 08:01:11;;;;;;;20.23;6.45;;;;;;;6.83;100.00;102825.28;5241033;28;20029;-74
2024/02/02 08:03:44;;;;;;;17.40;5.80;;;;;;;6.82;100.00;102820.97;5244467;28;20036;-74
2024/02/02 08:06:15;;;;;;;17.55;6.63;;;;;;;6.81;100.00;102825.31;5243319;28;20510;-75
2024/02/02 08:08:47;;;;;;;19.08;6.18;;;;;;;6.91;100.00;102825.00;5233821;28;20049;-75
2024/02/02 08:11:24;;;;;;;18.67;6.10;;;;;;;6.91;100.00;102819.78;5239865;28;20033;-74
2024/02/02 08:13:56;;;;;;;19.25;6.57;;;;;;;6.94;100.00;102817.06;5243188;28;20387;-74
2024/02/02 08:16:28;;;;;;;16.65;5.75;;;;;;;6.93;100.00;102811.00;5243785;28;20036;-74
2024/02/02 08:19:00;;;;;;;20.83;6.32;;;;;;;6.95;100.00;102800.50;5239351;28;20045;-75
2024/02/02 08:21:32;;;;;;;22.60;6.80;;;;;;;6.93;100.00;102797.09;5236082;28;20037;-74
2024/02/02 08:24:04;;;;;;;21.48;7.00;;;;;;;6.99;100.00;102794.28;5237463;28;20043;-74
2024/02/02 08:26:36;;;;;;;20.52;6.88;;;;;;;7.05;100.00;102809.69;5241145;28;20513;-74
2024/02/02 08:29:08;;;;;;;20.23;6.25;;;;;;;7.11;100.00;102811.19;5241716;28;20026;-74
2024/02/02 08:31:44;;;;;;;20.42;6.72;;;;;;;7.13;100.00;102810.22;5238506;28;20040;-74
2024/02/02 08:34:16;;;;;;;21.45;6.55;;;;;;;7.08;100.00;102806.94;5238386;28;20029;-76
2024/02/02 08:36:48;;;;;;;17.60;7.00;;;;;;;7.14;100.00;102805.88;5248851;28;20132;-74
2024/02/02 08:39:20;;;;;;;18.40;6.40;;;;;;;7.20;100.00;102805.63;5231766;28;20033;-74
2024/02/02 08:41:52;;;;;;;20.33;6.97;;;;;;;7.19;100.00;102801.31;5239443;28;20041;-74
2024/02/02 08:44:24;;;;;;;22.00;6.90;;;;;;;7.27;100.00;102791.44;5240312;28;20048;-76
2024/02/02 08:46:57;;;;;;;20.65;7.45;;;;;;;7.25;100.00;102783.69;5233361;28;20037;-75
2024/02/02 08:49:55;;;;;;;16.77;7.18;;;;;;;7.35;100.00;102792.00;5239959;28;20040;-74
2024/02/02 08:52:31;;;;;;;17.08;6.88;;;;;;;7.35;100.00;102789.38;5233112;28;20037;-75
2024/02/02 08:55:19;;;;;;;25.60;7.85;;;;;;;7.30;100.00;102783.47;5236481;28;20475;-74
2024/02/02 08:58:08;;;;;;;20.35;7.20;;;;;;;7.42;100.00;102766.50;5238856;28;20029;-75
2024/02/02 09:00:42;;;;;;;23.35;8.15;;;;;;;7.40;100.00;102792.66;5238671;28;20045;-74
2024/02/02 09:03:47;;;;;;;22.42;8.75;;;;;;;7.69;100.00;102793.19;5237718;28;20036;-76
2024/02/02 09:06:38;;;;;;;23.38;8.73;;;;;;;7.67;100.00;102780.22;5203194;28;20061;-74
2024/02/02 09:09:14;;;;;;;18.15;7.95;;;;;;;7.45;100.00;102769.81;5241690;28;20354;-74
2024/02/02 09:11:49;;;;;;;21.10;8.25;;;;;;;7.50;100.00;102780.94;5229028;28;20040;-76
2024/02/02 09:14:23;;;;;;;21.02;9.13;;;;;;;7.50;100.00;102775.72;5235927;28;20041;-77
2024/02/02 09:16:55;;;;;;;24.35;9.68;;;;;;;7.52;100.00;102770.44;5234036;28;20375;-76
2024/02/02 09:19:41;;;;;;;23.90;10.60;;;;;;;7.61;100.00;102769.19;5235398;28;20414;-74
2024/02/02 09:22:16;;;;;;;24.58;10.23;;;;;;;7.64;100.00;102782.13;5229941;28;20044;-74
2024/02/02 09:24:51;;;;;;;17.70;10.40;;;;;;;7.53;100.00;102762.53;5238124;28;20854;-74
2024/02/02 09:27:37;;;;;;;19.15;10.50;;;;;;;7.77;100.00;102783.31;5237038;28;20036;-74
2024/02/02 09:30:20;;;;;;;24.15;11.82;;;;;;;7.66;100.00;102768.09;5239434;28;20040;-74
2024/02/02 09:32:52;;;;;;;29.45;12.98;;;;;;;7.70;100.00;102781.88;5237651;28;20033;-75
2024/02/02 09:35:52;;;;;;;24.17;12.52;;;;;;;7.86;100.00;102780.31;5232844;28;20051;-75
2024/02/02 09:38:24;;;;;;;26.13;12.50;;;;;;;7.71;100.00;102767.91;5234450;28;20036;-75
2024/02/02 09:41:15;;;;;;;23.93;11.97;;;;;;;7.85;100.00;102783.00;5236939;28;20060;-74
2024/02/02 09:44:09;;;;;;;25.83;12.15;;;;;;;8.03;100.00;102788.28;5232527;28;20065;-75
2024/02/02 09:47:02;;;;;;;25.83;13.38;;;;;;;8.04;100.00;102774.31;5234839;28;20063;-75
2024/02/02 09:49:46;;;;;;;28.50;12.75;;;;;;;8.10;100.00;102783.63;5233691;28;20103;-74
2024/02/02 09:52:50;;;;;;;29.25;13.90;;;;;;;8.03;100.00;102780.44;5233984;28;20052;-76
2024/02/02 09:55:36;;;;;;;26.42;13.00;;;;;;;7.96;100.00;102775.56;5235682;28;20308;-75
2024/02/02 09:58:12;;;;;;;26.65;12.38;;;;;;;7.98;100.00;102774.56;5234081;28;20411;-74
2024/02/02 10:00:54;;;;;;;27.85;13.30;;;;;;;8.03;100.00;102777.84;5235102;28;20037;-74
2024/02/02 10:03:30;;;;;;;24.33;13.18;;;;;;;7.94;100.00;102777.38;5236293;28;20034;-76
2024/02/02 10:06:23;;;;;;;23.77;12.95;;;;;;;8.17;100.00;102782.44;5238897;28;20049;-75
2024/02/02 10:09:23;;;;;;;21.83;12.90;;;;;;;8.26;100.00;102783.81;5234425;28;20502;-74
2024/02/02 10:12:13;;;;;;;28.48;14.23;;;;;;;8.04;100.00;102797.81;5238268;28;20025;-74
2024/02/02 10:15:04;;;;;;;25.98;12.75;;;;;;;8.13;100.00;102783.50;5234058;28;20041;-77
2024/02/02 10:17:54;;;;;;;27.58;13.20;;;;;;;8.15;100.00;102770.38;5236241;28;20471;-75
2024/02/02 10:20:37;;;;;;;21.52;12.88;;;;;;;8.21;100.00;102785.78;5233975;28;20486;-74
2024/02/02 10:23:28;;;;;;;25.70;13.13;;;;;;;8.35;100.00;102793.84;5231030;28;20029;-74
2024/02/02 10:26:11;;;;;;;27.85;13.52;;;;;;;8.27;100.00;102788.13;5233400;28;20553;-75
2024/02/02 10:29:11;;;;;;;29.30;13.18;;;;;;;8.35;100.00;102778.19;5234738;28;20037;-75
2024/02/02 10:32:11;;;;;;;26.83;12.13;;;;;;;8.50;100.00;102779.28;5234085;28;20514;-75
2024/02/02 10:34:59;;;;;;;26.73;12.52;;;;;;;8.45;100.00;102786.50;5235061;28;20033;-75
2024/02/02 10:37:34;;;;;;;30.40;12.50;;;;;;;8.33;100.00;102787.00;5239358;28;20379;-77
2024/02/02 10:40:26;;;;;;;29.80;13.93;;;;;;;8.39;100.00;102797.22;5227031;28;20049;-75
2024/02/02 10:43:28;;;;;;;26.73;13.93;;;;;;;8.60;100.00;102788.44;5236386;28;20414;-76
2024/02/02 10:46:14;;;;;;;28.83;13.35;;;;;;;8.57;100.00;102787.72;5238106;28;20037;-75
2024/02/02 10:49:04;;;;;;;24.30;13.02;;;;;;;8.68;100.00;102794.13;5234891;28;20033;-74
2024/02/02 10:51:47;;;;;;;24.13;12.02;;;;;;;8.49;100.00;102791.50;5236508;28;20025;-75
2024/02/02 10:54:45;;;;;;;28.00;12.63;;;;;;;8.64;100.00;102794.34;5240148;28;20033;-75
2024/02/02 10:57:26;;;;;;;26.00;12.48;;;;;;;8.55;100.00;102781.69;5230643;28;20025;-74
2024/02/02 11:00:13;;;;;;;29.63;12.35;;;;;;;8.74;100.00;102787.78;5234722;28;20054;-75
2024/02/02 11:03:13;;;;;;;25.92;12.52;;;;;;;8.76;100.00;102778.13;5234009;28;20475;-75
2024/02/02 11:05:57;;;;;;;26.65;12.48;;;;;;;8.67;100.00;102760.22;5231889;28;20079;-74
2024/02/02 11:08:37;;;;;;;27.02;13.35;;;;;;;8.79;100.00;102767.53;5238193;28;20032;-75
2024/02/02 11:11:12;;;;;;;22.05;11.15;;;;;;;8.87;100.00;102770.63;5235897;28;20037;-75
2024/02/02 11:14:21;;;;;;;25.83;12.93;;;;;;;9.06;100.00;102767.13;5238286;28;20029;-77
2024/02/02 11:16:59;;;;;;;24.83;11.65;;;;;;;8.92;100.00;102757.31;5234782;28;20252;-77
2024/02/02 11:19:46;;;;;;;27.17;11.80;;;;;;;9.05;100.00;102737.50;5233630;28;20040;-74
2024/02/02 11:22:35;;;;;;;25.00;11.98;;;;;;;9.05;100.00;102739.28;5236242;28;20033;-75
2024/02/02 11:25:15;;;;;;;24.08;12.57;;;;;;;8.98;100.00;102729.13;5234025;28;20411;-74
2024/02/02 11:28:02;;;;;;;25.88;12.43;;;;;;;9.09;100.00;102732.97;5236637;28;20041;-74
2024/02/02 11:30:39;;;;;;;26.27;13.25;;;;;;;8.98;100.00;102725.69;5236985;28;20049;-74
2024/02/02 11:33:37;;;;;;;27.58;11.52;;;;;;;9.25;100.00;102720.88;5238022;28;20044;-74
2024/02/02 11:36:17;;;;;;;27.42;11.43;;;;;;;9.02;100.00;102725.44;5226570;28;20724;-76
2024/02/02 11:39:37;;;;;;;25.05;11.55;;;;;;;9.29;100.00;102727.63;5244006;28;20367;-74
2024/02/02 11:42:11;;;;;;;28.75;11.07;;;;;;;9.08;100.00;102716.44;5233637;28;20379;-75
2024/02/02 11:44:46;;;;;;;23.95;10.93;;;;;;;9.12;100.00;102709.31;5239073;28;20482;-75
2024/02/02 11:47:19;;;;;;;21.52;12.05;;;;;;;8.99;100.00;102719.53;5244668;28;20040;-74
2024/02/02 11:50:04;;;;;;;21.55;9.45;;;;;;;9.14;100.00;102710.09;5239112;28;20033;-75
2024/02/02 11:52:44;;;;;;;21.75;10.75;;;;;;;9.18;100.00;102707.25;5239587;28;20032;-75
2024/02/02 11:55:39;;;;;;;21.17;10.30;;;;;;;9.34;100.00;102702.09;5240931;28;20025;-74
2024/02/02 11:58:13;;;;;;;22.25;9.88;;;;;;;9.11;100.00;102718.91;5241109;28;20033;-75